This is the latest recevied weather packets stored in our database for station/object JF2ZGN-13. If no packets are shown the sender has not sent any weather packets the latest 10 day(s).
| Time | Temp. | Humidity | Pressure | Rain* | Wind** | Luminosity | Snow |
|---|---|---|---|---|---|---|---|
| 1788592137 | 16.11° C | 46% | 907.8 hPa | 36.58 mm | - | - | - |
| 1788591535 | 16.11° C | 47% | 907.7 hPa | 36.58 mm | - | - | - |
| 1788590935 | 16.11° C | 46% | 907.9 hPa | 36.58 mm | - | - | - |
| 1788590334 | 16.11° C | 46% | 907.8 hPa | 36.58 mm | - | - | - |
| 1788589734 | 16.11° C | 57% | 907.8 hPa | 36.58 mm | - | - | - |
| 1788589134 | 16.67° C | 57% | 907.8 hPa | 36.58 mm | - | - | - |
| 1788588533 | 16.67° C | 55% | 907.8 hPa | 36.58 mm | - | - | - |
| 1788587934 | 16.67° C | 52% | 907.8 hPa | 36.58 mm | - | - | - |
| 1788585531 | 16.67° C | 38% | 907.8 hPa | 36.58 mm | - | - | - |
| 1788559711 | 16.11° C | 51% | 906.9 hPa | 27.18 mm | - | - | - |
| 1788557309 | 16.11° C | 50% | 906.6 hPa | 26.67 mm | - | - | - |
| 1788556109 | 16.11° C | 54% | 906.6 hPa | 26.16 mm | - | - | - |
| 1788553706 | 15.56° C | 52% | 907.3 hPa | 24.89 mm | - | - | - |
| 1788549503 | 16.11° C | 51% | 906.4 hPa | 19.3 mm | - | - | - |
| 1788542297 | 15.56° C | 56% | 907.1 hPa | 9.14 mm | - | - | - |
| 1788541697 | 15.56° C | 54% | 907.1 hPa | 8.38 mm | - | - | - |
| 1788538695 | 15° C | 57% | 907.1 hPa | 4.06 mm | - | - | - |
| 1788536293 | 15° C | 52% | 907.4 hPa | 0.51 mm | - | - | - |
| 1788535692 | 15° C | 53% | 907.3 hPa | 0.51 mm | - | - | - |
| 1788535092 | 15° C | 55% | 907.1 hPa | 0.25 mm | - | - | - |
| 1788533291 | 15.56° C | 53% | 907.1 hPa | 10.92 mm | - | - | - |
| 1788532690 | 15.56° C | 55% | 907.5 hPa | 10.92 mm | - | - | - |
| 1788532089 | 16.11° C | 54% | 907.8 hPa | 10.67 mm | - | - | - |
| 1788531491 | 16.11° C | 54% | 907.7 hPa | 10.67 mm | - | - | - |
| 1788529087 | 16.67° C | 56% | 908.2 hPa | 9.4 mm | - | - | - |
* Rain since midnight (hover to see other rain measurements)
** Current wind speed in m/s (hover to see current wind gust speed)